Terminal Aerodrome Forecast
Issued by NWS

Home | Current Version | Previous Version | Text Only | Print | Product List | Glossary On
Versions: 1 2 3 4 5 6 7 8 9 10 11 12 13 14 15 16 17 18 19 20 21 22 23 24 25 26 27 28 29
222
FTUS43 KABR 232327
TAFATY
TAF
KATY 232327Z 2400/2424 29007KT 6SM BR BKN008
     FM240300 29006KT 2SM BR BKN008
     FM240600 31005KT 1SM BR BKN003
     FM240900 VRB03KT 1/4SM FG BKN003
     FM241500 21004KT 1 1/2SM BR BKN008
     FM241700 21006KT P6SM SCT030
     FM241900 20007KT P6SM SCT120=

USA.gov is the U.S. government's official web portal to all federal, state and local government web resources and services.